Aviation Digital Data Service (ADDS)

Output produced by METARs form (1613 UTC 24 August 2019)
found at http://www.aviationweather.gov/metar/data/
 
METAR text: YMML 241600Z 28007KT 9999 FEW047 05/04 Q1018
Conditions at: YMML (MELBOURNE INTL A, AU) observed 1600 UTC 24 August 2019
Temperature: 5.0°C (41°F)
Dewpoint: 4.0°C (39°F) [RH = 93%]
Pressure (altimeter): 30.06 inches Hg (1018.0 mb)
Winds: from the W (280 degrees) at 8 MPH (7 knots; 3.6 m/s)
Visibility: 6 or more miles (10+ km)
Ceiling: at least 12,000 feet AGL
Clouds: few clouds at 4700 feet AGL
Weather: no significant weather observed at this time

METAR text: YMML 241530Z 27008KT 9999 FEW047 06/04 Q1018 NOSIG
Conditions at: YMML (MELBOURNE INTL A, AU) observed 1530 UTC 24 August 2019
Temperature: 6.0°C (43°F)
Dewpoint: 4.0°C (39°F) [RH = 87%]
Pressure (altimeter): 30.06 inches Hg (1018.0 mb)
Winds: from the W (270 degrees) at 9 MPH (8 knots; 4.1 m/s)
Visibility: 6 or more miles (10+ km)
Ceiling: at least 12,000 feet AGL
Clouds: few clouds at 4700 feet AGL
Weather: no significant weather observed at this time

METAR text: YMML 241500Z 27010KT 9999 FEW028 07/04 Q1018
Conditions at: YMML (MELBOURNE INTL A, AU) observed 1500 UTC 24 August 2019
Temperature: 7.0°C (45°F)
Dewpoint: 4.0°C (39°F) [RH = 81%]
Pressure (altimeter): 30.06 inches Hg (1018.0 mb)
Winds: from the W (270 degrees) at 12 MPH (10 knots; 5.1 m/s)
Visibility: 6 or more miles (10+ km)
Ceiling: at least 12,000 feet AGL
Clouds: few clouds at 2800 feet AGL
Weather: no significant weather observed at this time

METAR text: YMML 241430Z 25010KT 9999 SCT032 07/04 Q1018 NOSIG
Conditions at: YMML (MELBOURNE INTL A, AU) observed 1430 UTC 24 August 2019
Temperature: 7.0°C (45°F)
Dewpoint: 4.0°C (39°F) [RH = 81%]
Pressure (altimeter): 30.06 inches Hg (1018.0 mb)
Winds: from the WSW (250 degrees) at 12 MPH (10 knots; 5.1 m/s)
Visibility: 6 or more miles (10+ km)
Ceiling: at least 12,000 feet AGL
Clouds: scattered clouds at 3200 feet AGL
Weather: no significant weather observed at this time

METAR text: YMML 241400Z 24009KT CAVOK 07/05 Q1017
Conditions at: YMML (MELBOURNE INTL A, AU) observed 1400 UTC 24 August 2019
Temperature: 7.0°C (45°F)
Dewpoint: 5.0°C (41°F) [RH = 87%]
Pressure (altimeter): 30.03 inches Hg (1017.0 mb)
Winds: from the WSW (240 degrees) at 10 MPH (9 knots; 4.6 m/s)
Visibility: 6 or more miles (10+ km)
Ceiling: ceiling and visibility are OK
Clouds: unknown
Weather: no significant weather observed at this time

METAR text: YMML 241330Z 24012KT CAVOK 07/05 Q1017 NOSIG
Conditions at: YMML (MELBOURNE INTL A, AU) observed 1330 UTC 24 August 2019
Temperature: 7.0°C (45°F)
Dewpoint: 5.0°C (41°F) [RH = 87%]
Pressure (altimeter): 30.03 inches Hg (1017.0 mb)
Winds: from the WSW (240 degrees) at 14 MPH (12 knots; 6.2 m/s)
Visibility: 6 or more miles (10+ km)
Ceiling: ceiling and visibility are OK
Clouds: unknown
Weather: no significant weather observed at this time

METAR text: YMML 241300Z 25014KT CAVOK 08/05 Q1017
Conditions at: YMML (MELBOURNE INTL A, AU) observed 1300 UTC 24 August 2019
Temperature: 8.0°C (46°F)
Dewpoint: 5.0°C (41°F) [RH = 81%]
Pressure (altimeter): 30.03 inches Hg (1017.0 mb)
Winds: from the WSW (250 degrees) at 16 MPH (14 knots; 7.2 m/s)
Visibility: 6 or more miles (10+ km)
Ceiling: ceiling and visibility are OK
Clouds: unknown
Weather: no significant weather observed at this time

METAR text: YMML 241230Z 25010KT CAVOK 08/05 Q1017 NOSIG
Conditions at: YMML (MELBOURNE INTL A, AU) observed 1230 UTC 24 August 2019
Temperature: 8.0°C (46°F)
Dewpoint: 5.0°C (41°F) [RH = 81%]
Pressure (altimeter): 30.03 inches Hg (1017.0 mb)
Winds: from the WSW (250 degrees) at 12 MPH (10 knots; 5.1 m/s)
Visibility: 6 or more miles (10+ km)
Ceiling: ceiling and visibility are OK
Clouds: unknown
Weather: no significant weather observed at this time

METAR text: YMML 241200Z 23012KT 9999 FEW020 BKN140 09/05 Q1016
Conditions at: YMML (MELBOURNE INTL A, AU) observed 1200 UTC 24 August 2019
Temperature: 9.0°C (48°F)
Dewpoint: 5.0°C (41°F) [RH = 76%]
Pressure (altimeter): 30.00 inches Hg (1016.0 mb)
Winds: from the SW (230 degrees) at 14 MPH (12 knots; 6.2 m/s)
Visibility: 6 or more miles (10+ km)
Ceiling: 14000 feet AGL
Clouds: few clouds at 2000 feet AGL
broken clouds at 14000 feet AGL
Weather: no significant weather observed at this time

METAR text: YMML 241130Z 23012KT 9999 FEW020 SCT120 BKN150 09/06 Q1016 NOSIG
Conditions at: YMML (MELBOURNE INTL A, AU) observed 1130 UTC 24 August 2019
Temperature: 9.0°C (48°F)
Dewpoint: 6.0°C (43°F) [RH = 81%]
Pressure (altimeter): 30.00 inches Hg (1016.0 mb)
Winds: from the SW (230 degrees) at 14 MPH (12 knots; 6.2 m/s)
Visibility: 6 or more miles (10+ km)
Ceiling: 15000 feet AGL
Clouds: few clouds at 2000 feet AGL
scattered clouds at 12000 feet AGL
broken clouds at 15000 feet AGL
Weather: no significant weather observed at this time

METAR text: YMML 241100Z 24017KT 9999 VCSH FEW019 SCT045 BKN120 09/06 Q1016 FM1200 25012KT 9999 FEW020 SCT040 INTER 1100/1130 5000 SHRA SCT012
Conditions at: YMML (MELBOURNE INTL A, AU) observed 1100 UTC 24 August 2019
Temperature: 9.0°C (48°F)
Dewpoint: 6.0°C (43°F) [RH = 81%]
Pressure (altimeter): 30.00 inches Hg (1016.0 mb)
Winds: from the WSW (240 degrees) at 20 MPH (17 knots; 8.7 m/s)
Visibility: 6 or more miles (10+ km)
Ceiling: 12000 feet AGL
Clouds: few clouds at 1900 feet AGL
scattered clouds at 4500 feet AGL
broken clouds at 12000 feet AGL
Weather: VCSH  (showers in vicinity)

METAR text: YMML 241030Z 25014KT 9999 -SHRA FEW019 SCT045 BKN060 10/07 Q1016 TEMPO 1030/1100 24025G35KT 5000 SHRA BKN012 FM1030 MOD TURB BLW 5000FT TL1100
Conditions at: YMML (MELBOURNE INTL A, AU) observed 1030 UTC 24 August 2019
Temperature: 10.0°C (50°F)
Dewpoint: 7.0°C (45°F) [RH = 82%]
Pressure (altimeter): 30.00 inches Hg (1016.0 mb)
Winds: from the WSW (250 degrees) at 16 MPH (14 knots; 7.2 m/s)
Visibility: 6 or more miles (10+ km)
Ceiling: 6000 feet AGL
Clouds: few clouds at 1900 feet AGL
scattered clouds at 4500 feet AGL
broken clouds at 6000 feet AGL
Weather: -SHRA  (light rain showers)

METAR text: YMML 241000Z 24019KT 9999 -SHRA FEW019 SCT040 BKN050 10/07 Q1015 FM1200 25012KT 9999 BKN020 TEMPO 1000/1200 24025G35KT 5000 SHRA BKN012 FM1000 MOD TURB BLW 5000FT TL1100
Conditions at: YMML (MELBOURNE INTL A, AU) observed 1000 UTC 24 August 2019
Temperature: 10.0°C (50°F)
Dewpoint: 7.0°C (45°F) [RH = 82%]
Pressure (altimeter): 29.97 inches Hg (1015.0 mb)
Winds: from the WSW (240 degrees) at 22 MPH (19 knots; 9.8 m/s)
Visibility: 6 or more miles (10+ km)
Ceiling: 5000 feet AGL
Clouds: few clouds at 1900 feet AGL
scattered clouds at 4000 feet AGL
broken clouds at 5000 feet AGL
Weather: -SHRA  (light rain showers)

METAR text: YMML 240930Z 24019KT 9999 -SHRA SCT019 BKN040 10/08 Q1014 FM1200 25012KT 9999 BKN020 TEMPO 0930/1100 24025G35KT 5000 SHRA BKN012 FM0930 MOD TURB BLW 5000FT TL1100
Conditions at: YMML (MELBOURNE INTL A, AU) observed 0930 UTC 24 August 2019
Temperature: 10.0°C (50°F)
Dewpoint: 8.0°C (46°F) [RH = 87%]
Pressure (altimeter): 29.94 inches Hg (1014.0 mb)
Winds: from the WSW (240 degrees) at 22 MPH (19 knots; 9.8 m/s)
Visibility: 6 or more miles (10+ km)
Ceiling: 4000 feet AGL
Clouds: scattered clouds at 1900 feet AGL
broken clouds at 4000 feet AGL
Weather: -SHRA  (light rain showers)

METAR text: YMML 240900Z 24021G31KT 9999 -SHRA FEW018 BKN058 11/07 Q1014 TEMPO 0900/1200 24025G35KT 5000 SHRA BKN012 FM0900 MOD TURB BLW 5000FT TL1100
Conditions at: YMML (MELBOURNE INTL A, AU) observed 0900 UTC 24 August 2019
Temperature: 11.0°C (52°F)
Dewpoint: 7.0°C (45°F) [RH = 76%]
Pressure (altimeter): 29.94 inches Hg (1014.0 mb)
Winds: from the WSW (240 degrees) at 24 MPH (21 knots; 10.8 m/s)
gusting to 36 MPH (31 knots; 15.9 m/s)
Visibility: 6 or more miles (10+ km)
Ceiling: 5800 feet AGL
Clouds: few clouds at 1800 feet AGL
broken clouds at 5800 feet AGL
Weather: -SHRA  (light rain showers)

METAR text: YMML 240859Z 24021G31KT 9999 -SHRA FEW018 BKN058 11/07 Q1014
Conditions at: YMML (MELBOURNE INTL A, AU) observed 0859 UTC 24 August 2019
Temperature: 11.0°C (52°F)
Dewpoint: 7.0°C (45°F) [RH = 76%]
Pressure (altimeter): 29.94 inches Hg (1014.0 mb)
Winds: from the WSW (240 degrees) at 24 MPH (21 knots; 10.8 m/s)
gusting to 36 MPH (31 knots; 15.9 m/s)
Visibility: 6 or more miles (10+ km)
Ceiling: 5800 feet AGL
Clouds: few clouds at 1800 feet AGL
broken clouds at 5800 feet AGL
Weather: -SHRA  (light rain showers)

METAR text: YMML 240856Z 24023KT 9999 -SHRA FEW018 BKN058 12/07 Q1013 TEMPO 0856/1156 24025G35KT 5000 SHRA BKN012 FM0856 MOD TURB BLW 5000FT TL1100
Conditions at: YMML (MELBOURNE INTL A, AU) observed 0856 UTC 24 August 2019
Temperature: 12.0°C (54°F)
Dewpoint: 7.0°C (45°F) [RH = 71%]
Pressure (altimeter): 29.91 inches Hg (1013.0 mb)
Winds: from the WSW (240 degrees) at 26 MPH (23 knots; 11.8 m/s)
Visibility: 6 or more miles (10+ km)
Ceiling: 5800 feet AGL
Clouds: few clouds at 1800 feet AGL
broken clouds at 5800 feet AGL
Weather: -SHRA  (light rain showers)

METAR text: YMML 240838Z 21015G25KT 200V320 9999 -SHRA FEW018 BKN058 13/08 Q1013 FM0900 24015G25KT 9999 -SHRA SCT012 BKN020 TEMPO 0838/1100 24025G35KT 5000 SHRA BKN012 FM0838 MOD/SEV TURB BLW 5000FT FM0930 MOD TURB BLW 5000FT TL1100
Conditions at: YMML (MELBOURNE INTL A, AU) observed 0838 UTC 24 August 2019
Temperature: 13.0°C (55°F)
Dewpoint: 8.0°C (46°F) [RH = 72%]
Pressure (altimeter): 29.91 inches Hg (1013.0 mb)
Winds: from the SSW (210 degrees) at 17 MPH (15 knots; 7.7 m/s)
gusting to 29 MPH (25 knots; 12.9 m/s)
Visibility: 6 or more miles (10+ km)
Ceiling: 5800 feet AGL
Clouds: few clouds at 1800 feet AGL
broken clouds at 5800 feet AGL
Weather: -SHRA  (light rain showers)

METAR text: YMML 240830Z 32008KT 9999 -SHRA FEW040 BKN056 16/05 Q1012 FM0835 24020G35KT 9999 -SHRA SCT012 BKN020 FM0900 24015G25KT 9999 -SHRA SCT012 BKN020 TEMPO 0800/1100 24025G35KT 5000 SHRA BKN012 FM0800 MOD/SEV TURB BLW 5000FT FM0930 MOD TURB BLW 5000FT TL1100
Conditions at: YMML (MELBOURNE INTL A, AU) observed 0830 UTC 24 August 2019
Temperature: 16.0°C (61°F)
Dewpoint: 5.0°C (41°F) [RH = 48%]
Pressure (altimeter): 29.88 inches Hg (1012.0 mb)
Winds: from the NW (320 degrees) at 9 MPH (8 knots; 4.1 m/s)
Visibility: 6 or more miles (10+ km)
Ceiling: 5600 feet AGL
Clouds: few clouds at 4000 feet AGL
broken clouds at 5600 feet AGL
Weather: -SHRA  (light rain showers)

METAR text: YMML 240800Z 34011KT 9999 -SHRA FEW040 BKN058 BKN090 16/04 Q1011 FM0830 24020G35KT 9999 -SHRA SCT012 BKN020 FM0900 24015G25KT 9999 -SHRA SCT012 BKN020 TEMPO 0800/1100 24025G35KT 5000 SHRA BKN012 FM0800 MOD/SEV TURB BLW 5000FT FM0930 MOD TURB BLW 5000FT
Conditions at: YMML (MELBOURNE INTL A, AU) observed 0800 UTC 24 August 2019
Temperature: 16.0°C (61°F)
Dewpoint: 4.0°C (39°F) [RH = 45%]
Pressure (altimeter): 29.85 inches Hg (1011.0 mb)
Winds: from the NNW (340 degrees) at 13 MPH (11 knots; 5.7 m/s)
Visibility: 6 or more miles (10+ km)
Ceiling: 5800 feet AGL
Clouds: few clouds at 4000 feet AGL
broken clouds at 5800 feet AGL
broken clouds at 9000 feet AGL
Weather: -SHRA  (light rain showers)

METAR text: YMML 240730Z 34015KT CAVOK 16/04 Q1011 FM0830 24015G25KT 9999 -SHRA SCT012 BKN020 TEMPO 0800/1030 24025G35KT 5000 SHRA BKN012 FM0730 MOD/SEV TURB BLW 5000FT FM0930 MOD TURB BLW 5000FT
Conditions at: YMML (MELBOURNE INTL A, AU) observed 0730 UTC 24 August 2019
Temperature: 16.0°C (61°F)
Dewpoint: 4.0°C (39°F) [RH = 45%]
Pressure (altimeter): 29.85 inches Hg (1011.0 mb)
Winds: from the NNW (340 degrees) at 17 MPH (15 knots; 7.7 m/s)
Visibility: 6 or more miles (10+ km)
Ceiling: ceiling and visibility are OK
Clouds: unknown
Weather: no significant weather observed at this time

METAR text: YMML 240700Z 34019KT 9999 FEW035 SCT075 BKN150 17/04 Q1011 FM0830 24015G25KT 9999 -SHRA SCT012 BKN020 TEMPO 0800/1000 24025G35KT 5000 SHRA BKN012 FM0700 MOD/SEV TURB BLW 5000FT FM0900 MOD TURB BLW 5000FT
Conditions at: YMML (MELBOURNE INTL A, AU) observed 0700 UTC 24 August 2019
Temperature: 17.0°C (63°F)
Dewpoint: 4.0°C (39°F) [RH = 42%]
Pressure (altimeter): 29.85 inches Hg (1011.0 mb)
Winds: from the NNW (340 degrees) at 22 MPH (19 knots; 9.8 m/s)
Visibility: 6 or more miles (10+ km)
Ceiling: 15000 feet AGL
Clouds: few clouds at 3500 feet AGL
scattered clouds at 7500 feet AGL
broken clouds at 15000 feet AGL
Weather: no significant weather observed at this time

METAR text: YMML 240630Z 36023KT 9999 FEW035 BKN140 17/04 Q1010 FM0800 24015G25KT 9999 -SHRA SCT012 BKN020 TEMPO 0800/0930 24025G35KT 5000 SHRA BKN012 FM0630 MOD/SEV TURB BLW 5000FT FM0900 MOD TURB BLW 5000FT
Conditions at: YMML (MELBOURNE INTL A, AU) observed 0630 UTC 24 August 2019
Temperature: 17.0°C (63°F)
Dewpoint: 4.0°C (39°F) [RH = 42%]
Pressure (altimeter): 29.82 inches Hg (1010.0 mb)
Winds: from the N (360 degrees) at 26 MPH (23 knots; 11.8 m/s)
Visibility: 6 or more miles (10+ km)
Ceiling: 14000 feet AGL
Clouds: few clouds at 3500 feet AGL
broken clouds at 14000 feet AGL
Weather: no significant weather observed at this time

METAR text: YMML 240616Z 35021G32KT 9999 FEW035 BKN140 17/04 Q1010 FM0800 24015G25KT 9999 -SHRA SCT012 BKN020 TEMPO 0800/0916 24025G35KT 5000 SHRA BKN012 FM0616 MOD/SEV TURB BLW 5000FT FM0900 MOD TURB BLW 5000FT
Conditions at: YMML (MELBOURNE INTL A, AU) observed 0616 UTC 24 August 2019
Temperature: 17.0°C (63°F)
Dewpoint: 4.0°C (39°F) [RH = 42%]
Pressure (altimeter): 29.82 inches Hg (1010.0 mb)
Winds: from the N (350 degrees) at 24 MPH (21 knots; 10.8 m/s)
gusting to 37 MPH (32 knots; 16.5 m/s)
Visibility: 6 or more miles (10+ km)
Ceiling: 14000 feet AGL
Clouds: few clouds at 3500 feet AGL
broken clouds at 14000 feet AGL
Weather: no significant weather observed at this time

METAR text: YMML 240600Z 35021KT 9999 FEW035 SCT130 BKN140 17/04 Q1010 FM0800 24015G25KT 9999 -SHRA SCT012 BKN020 TEMPO 0800/0900 24025G35KT 5000 SHRA BKN012 FM0600 MOD/SEV TURB BLW 5000FT
Conditions at: YMML (MELBOURNE INTL A, AU) observed 0600 UTC 24 August 2019
Temperature: 17.0°C (63°F)
Dewpoint: 4.0°C (39°F) [RH = 42%]
Pressure (altimeter): 29.82 inches Hg (1010.0 mb)
Winds: from the N (350 degrees) at 24 MPH (21 knots; 10.8 m/s)
Visibility: 6 or more miles (10+ km)
Ceiling: 14000 feet AGL
Clouds: few clouds at 3500 feet AGL
scattered clouds at 13000 feet AGL
broken clouds at 14000 feet AGL
Weather: no significant weather observed at this time

METAR text: YMML 240535Z 35020G30KT CAVOK 17/03 Q1010 FM0800 24015G25KT 9999 -SHRA SCT012 BKN020 TEMPO 0800/0835 24025G35KT 5000 SHRA BKN012 FM0535 MOD/SEV TURB BLW 5000FT
Conditions at: YMML (MELBOURNE INTL A, AU) observed 0535 UTC 24 August 2019
Temperature: 17.0°C (63°F)
Dewpoint: 3.0°C (37°F) [RH = 39%]
Pressure (altimeter): 29.82 inches Hg (1010.0 mb)
Winds: from the N (350 degrees) at 23 MPH (20 knots; 10.3 m/s)
gusting to 34 MPH (30 knots; 15.4 m/s)
Visibility: 6 or more miles (10+ km)
Ceiling: ceiling and visibility are OK
Clouds: unknown
Weather: no significant weather observed at this time

METAR text: YMML 240500Z 35020KT CAVOK 17/03 Q1011 FM0500 MOD/SEV TURB BLW 5000FT
Conditions at: YMML (MELBOURNE INTL A, AU) observed 0500 UTC 24 August 2019
Temperature: 17.0°C (63°F)
Dewpoint: 3.0°C (37°F) [RH = 39%]
Pressure (altimeter): 29.85 inches Hg (1011.0 mb)
Winds: from the N (350 degrees) at 23 MPH (20 knots; 10.3 m/s)
Visibility: 6 or more miles (10+ km)
Ceiling: ceiling and visibility are OK
Clouds: unknown
Weather: no significant weather observed at this time

METAR text: YMML 240439Z 36023G33KT CAVOK 18/04 Q1011 FM0439 MOD/SEV TURB BLW 5000FT
Conditions at: YMML (MELBOURNE INTL A, AU) observed 0439 UTC 24 August 2019
Temperature: 18.0°C (64°F)
Dewpoint: 4.0°C (39°F) [RH = 39%]
Pressure (altimeter): 29.85 inches Hg (1011.0 mb)
Winds: from the N (360 degrees) at 26 MPH (23 knots; 11.8 m/s)
gusting to 38 MPH (33 knots; 17.0 m/s)
Visibility: 6 or more miles (10+ km)
Ceiling: ceiling and visibility are OK
Clouds: unknown
Weather: no significant weather observed at this time

METAR text: YMML 240430Z 36025KT CAVOK 18/04 Q1011 FM0430 MOD/SEV TURB BLW 5000FT
Conditions at: YMML (MELBOURNE INTL A, AU) observed 0430 UTC 24 August 2019
Temperature: 18.0°C (64°F)
Dewpoint: 4.0°C (39°F) [RH = 39%]
Pressure (altimeter): 29.85 inches Hg (1011.0 mb)
Winds: from the N (360 degrees) at 29 MPH (25 knots; 12.9 m/s)
Visibility: 6 or more miles (10+ km)
Ceiling: ceiling and visibility are OK
Clouds: unknown
Weather: no significant weather observed at this time

METAR text: YMML 240406Z 36028G38KT CAVOK 17/03 Q1011 FM0406 MOD/SEV TURB BLW 5000FT
Conditions at: YMML (MELBOURNE INTL A, AU) observed 0406 UTC 24 August 2019
Temperature: 17.0°C (63°F)
Dewpoint: 3.0°C (37°F) [RH = 39%]
Pressure (altimeter): 29.85 inches Hg (1011.0 mb)
Winds: from the N (360 degrees) at 32 MPH (28 knots; 14.4 m/s)
gusting to 44 MPH (38 knots; 19.5 m/s)
Visibility: 6 or more miles (10+ km)
Ceiling: ceiling and visibility are OK
Clouds: unknown
Weather: no significant weather observed at this time

METAR text: YMML 240400Z 36029KT CAVOK 17/03 Q1010 FM0400 MOD/SEV TURB BLW 5000FT
Conditions at: YMML (MELBOURNE INTL A, AU) observed 0400 UTC 24 August 2019
Temperature: 17.0°C (63°F)
Dewpoint: 3.0°C (37°F) [RH = 39%]
Pressure (altimeter): 29.82 inches Hg (1010.0 mb)
Winds: from the N (360 degrees) at 33 MPH (29 knots; 14.9 m/s)
Visibility: 6 or more miles (10+ km)
Ceiling: ceiling and visibility are OK
Clouds: unknown
Weather: no significant weather observed at this time

METAR text: YMML 240352Z 36027G38KT CAVOK 17/03 Q1010 FM0352 MOD/SEV TURB BLW 5000FT
Conditions at: YMML (MELBOURNE INTL A, AU) observed 0352 UTC 24 August 2019
Temperature: 17.0°C (63°F)
Dewpoint: 3.0°C (37°F) [RH = 39%]
Pressure (altimeter): 29.82 inches Hg (1010.0 mb)
Winds: from the N (360 degrees) at 31 MPH (27 knots; 13.9 m/s)
gusting to 44 MPH (38 knots; 19.5 m/s)
Visibility: 6 or more miles (10+ km)
Ceiling: ceiling and visibility are OK
Clouds: unknown
Weather: no significant weather observed at this time

METAR text: YMML 240330Z 36026KT CAVOK 17/03 Q1011 FM0330 MOD/SEV TURB BLW 5000FT
Conditions at: YMML (MELBOURNE INTL A, AU) observed 0330 UTC 24 August 2019
Temperature: 17.0°C (63°F)
Dewpoint: 3.0°C (37°F) [RH = 39%]
Pressure (altimeter): 29.85 inches Hg (1011.0 mb)
Winds: from the N (360 degrees) at 30 MPH (26 knots; 13.4 m/s)
Visibility: 6 or more miles (10+ km)
Ceiling: ceiling and visibility are OK
Clouds: unknown
Weather: no significant weather observed at this time

METAR text: YMML 240300Z 36026KT CAVOK 17/04 Q1012 FM0300 MOD/SEV TURB BLW 5000FT
Conditions at: YMML (MELBOURNE INTL A, AU) observed 0300 UTC 24 August 2019
Temperature: 17.0°C (63°F)
Dewpoint: 4.0°C (39°F) [RH = 42%]
Pressure (altimeter): 29.88 inches Hg (1012.0 mb)
Winds: from the N (360 degrees) at 30 MPH (26 knots; 13.4 m/s)
Visibility: 6 or more miles (10+ km)
Ceiling: ceiling and visibility are OK
Clouds: unknown
Weather: no significant weather observed at this time

METAR text: YMML 240232Z 36026G38KT CAVOK 16/03 Q1012 FM0232 MOD/SEV TURB BLW 5000FT
Conditions at: YMML (MELBOURNE INTL A, AU) observed 0232 UTC 24 August 2019
Temperature: 16.0°C (61°F)
Dewpoint: 3.0°C (37°F) [RH = 42%]
Pressure (altimeter): 29.88 inches Hg (1012.0 mb)
Winds: from the N (360 degrees) at 30 MPH (26 knots; 13.4 m/s)
gusting to 44 MPH (38 knots; 19.5 m/s)
Visibility: 6 or more miles (10+ km)
Ceiling: ceiling and visibility are OK
Clouds: unknown
Weather: no significant weather observed at this time

METAR text: YMML 240227Z 01024G34KT CAVOK 16/03 Q1012 FM0227 MOD/SEV TURB BLW 5000FT
Conditions at: YMML (MELBOURNE INTL A, AU) observed 0227 UTC 24 August 2019
Temperature: 16.0°C (61°F)
Dewpoint: 3.0°C (37°F) [RH = 42%]
Pressure (altimeter): 29.88 inches Hg (1012.0 mb)
Winds: from the N (10 degrees) at 28 MPH (24 knots; 12.3 m/s)
gusting to 39 MPH (34 knots; 17.5 m/s)
Visibility: 6 or more miles (10+ km)
Ceiling: ceiling and visibility are OK
Clouds: unknown
Weather: no significant weather observed at this time

METAR text: YMML 240200Z 01026KT CAVOK 15/03 Q1013 FM0200 MOD/SEV TURB BLW 5000FT
Conditions at: YMML (MELBOURNE INTL A, AU) observed 0200 UTC 24 August 2019
Temperature: 15.0°C (59°F)
Dewpoint: 3.0°C (37°F) [RH = 44%]
Pressure (altimeter): 29.91 inches Hg (1013.0 mb)
Winds: from the N (10 degrees) at 30 MPH (26 knots; 13.4 m/s)
Visibility: 6 or more miles (10+ km)
Ceiling: ceiling and visibility are OK
Clouds: unknown
Weather: no significant weather observed at this time

METAR text: YMML 240130Z 01024KT CAVOK 14/02 Q1014 FM0130 MOD/SEV TURB BLW 5000FT
Conditions at: YMML (MELBOURNE INTL A, AU) observed 0130 UTC 24 August 2019
Temperature: 14.0°C (57°F)
Dewpoint: 2.0°C (36°F) [RH = 44%]
Pressure (altimeter): 29.94 inches Hg (1014.0 mb)
Winds: from the N (10 degrees) at 28 MPH (24 knots; 12.3 m/s)
Visibility: 6 or more miles (10+ km)
Ceiling: ceiling and visibility are OK
Clouds: unknown
Weather: no significant weather observed at this time

METAR text: YMML 240116Z 36026G37KT CAVOK 14/02 Q1014 FM0116 MOD/SEV TURB BLW 5000FT
Conditions at: YMML (MELBOURNE INTL A, AU) observed 0116 UTC 24 August 2019
Temperature: 14.0°C (57°F)
Dewpoint: 2.0°C (36°F) [RH = 44%]
Pressure (altimeter): 29.94 inches Hg (1014.0 mb)
Winds: from the N (360 degrees) at 30 MPH (26 knots; 13.4 m/s)
gusting to 43 MPH (37 knots; 19.0 m/s)
Visibility: 6 or more miles (10+ km)
Ceiling: ceiling and visibility are OK
Clouds: unknown
Weather: no significant weather observed at this time

METAR text: YMML 240100Z 36025KT CAVOK 13/02 Q1014 FM0100 MOD/SEV TURB BLW 5000FT
Conditions at: YMML (MELBOURNE INTL A, AU) observed 0100 UTC 24 August 2019
Temperature: 13.0°C (55°F)
Dewpoint: 2.0°C (36°F) [RH = 47%]
Pressure (altimeter): 29.94 inches Hg (1014.0 mb)
Winds: from the N (360 degrees) at 29 MPH (25 knots; 12.9 m/s)
Visibility: 6 or more miles (10+ km)
Ceiling: ceiling and visibility are OK
Clouds: unknown
Weather: no significant weather observed at this time

METAR text: YMML 240030Z 01022KT CAVOK 12/02 Q1014 FM0030 MOD/SEV TURB BLW 5000FT
Conditions at: YMML (MELBOURNE INTL A, AU) observed 0030 UTC 24 August 2019
Temperature: 12.0°C (54°F)
Dewpoint: 2.0°C (36°F) [RH = 50%]
Pressure (altimeter): 29.94 inches Hg (1014.0 mb)
Winds: from the N (10 degrees) at 25 MPH (22 knots; 11.3 m/s)
Visibility: 6 or more miles (10+ km)
Ceiling: ceiling and visibility are OK
Clouds: unknown
Weather: no significant weather observed at this time

METAR text: YMML 240000Z 01025G35KT CAVOK 11/01 Q1015 FM0000 MOD/SEV TURB BLW 5000FT
Conditions at: YMML (MELBOURNE INTL A, AU) observed 0000 UTC 24 August 2019
Temperature: 11.0°C (52°F)
Dewpoint: 1.0°C (34°F) [RH = 50%]
Pressure (altimeter): 29.97 inches Hg (1015.0 mb)
Winds: from the N (10 degrees) at 29 MPH (25 knots; 12.9 m/s)
gusting to 40 MPH (35 knots; 18.0 m/s)
Visibility: 6 or more miles (10+ km)
Ceiling: ceiling and visibility are OK
Clouds: unknown
Weather: no significant weather observed at this time

METAR text: YMML 232358Z 01025G35KT CAVOK 11/01 Q1015 FM2358 MOD/SEV TURB BLW 5000FT
Conditions at: YMML (MELBOURNE INTL A, AU) observed 2358 UTC 23 August 2019
Temperature: 11.0°C (52°F)
Dewpoint: 1.0°C (34°F) [RH = 50%]
Pressure (altimeter): 29.97 inches Hg (1015.0 mb)
Winds: from the N (10 degrees) at 29 MPH (25 knots; 12.9 m/s)
gusting to 40 MPH (35 knots; 18.0 m/s)
Visibility: 6 or more miles (10+ km)
Ceiling: ceiling and visibility are OK
Clouds: unknown
Weather: no significant weather observed at this time

METAR text: YMML 232330Z 01025KT CAVOK 10/01 Q1015 FM2330 MOD/SEV TURB BLW 5000FT
Conditions at: YMML (MELBOURNE INTL A, AU) observed 2330 UTC 23 August 2019
Temperature: 10.0°C (50°F)
Dewpoint: 1.0°C (34°F) [RH = 53%]
Pressure (altimeter): 29.97 inches Hg (1015.0 mb)
Winds: from the N (10 degrees) at 29 MPH (25 knots; 12.9 m/s)
Visibility: 6 or more miles (10+ km)
Ceiling: ceiling and visibility are OK
Clouds: unknown
Weather: no significant weather observed at this time

METAR text: YMML 232300Z 01025KT CAVOK 09/01 Q1016 FM2300 MOD/SEV TURB BLW 5000FT
Conditions at: YMML (MELBOURNE INTL A, AU) observed 2300 UTC 23 August 2019
Temperature: 9.0°C (48°F)
Dewpoint: 1.0°C (34°F) [RH = 57%]
Pressure (altimeter): 30.00 inches Hg (1016.0 mb)
Winds: from the N (10 degrees) at 29 MPH (25 knots; 12.9 m/s)
Visibility: 6 or more miles (10+ km)
Ceiling: ceiling and visibility are OK
Clouds: unknown
Weather: no significant weather observed at this time

METAR text: YMML 232230Z 01023KT CAVOK 09/01 Q1016 FM2230 MOD/SEV TURB BLW 5000FT
Conditions at: YMML (MELBOURNE INTL A, AU) observed 2230 UTC 23 August 2019
Temperature: 9.0°C (48°F)
Dewpoint: 1.0°C (34°F) [RH = 57%]
Pressure (altimeter): 30.00 inches Hg (1016.0 mb)
Winds: from the N (10 degrees) at 26 MPH (23 knots; 11.8 m/s)
Visibility: 6 or more miles (10+ km)
Ceiling: ceiling and visibility are OK
Clouds: unknown
Weather: no significant weather observed at this time

METAR text: YMML 232200Z 01021KT CAVOK 08/01 Q1017 FM2200 MOD/SEV TURB BLW 5000FT
Conditions at: YMML (MELBOURNE INTL A, AU) observed 2200 UTC 23 August 2019
Temperature: 8.0°C (46°F)
Dewpoint: 1.0°C (34°F) [RH = 61%]
Pressure (altimeter): 30.03 inches Hg (1017.0 mb)
Winds: from the N (10 degrees) at 24 MPH (21 knots; 10.8 m/s)
Visibility: 6 or more miles (10+ km)
Ceiling: ceiling and visibility are OK
Clouds: unknown
Weather: no significant weather observed at this time

METAR text: YMML 232130Z 01021KT CAVOK 07/01 Q1017 FM2130 MOD/SEV TURB BLW 5000FT
Conditions at: YMML (MELBOURNE INTL A, AU) observed 2130 UTC 23 August 2019
Temperature: 7.0°C (45°F)
Dewpoint: 1.0°C (34°F) [RH = 66%]
Pressure (altimeter): 30.03 inches Hg (1017.0 mb)
Winds: from the N (10 degrees) at 24 MPH (21 knots; 10.8 m/s)
Visibility: 6 or more miles (10+ km)
Ceiling: ceiling and visibility are OK
Clouds: unknown
Weather: no significant weather observed at this time

METAR text: YMML 232100Z 36022KT CAVOK 07/01 Q1017 FM2100 MOD/SEV TURB BLW 5000FT
Conditions at: YMML (MELBOURNE INTL A, AU) observed 2100 UTC 23 August 2019
Temperature: 7.0°C (45°F)
Dewpoint: 1.0°C (34°F) [RH = 66%]
Pressure (altimeter): 30.03 inches Hg (1017.0 mb)
Winds: from the N (360 degrees) at 25 MPH (22 knots; 11.3 m/s)
Visibility: 6 or more miles (10+ km)
Ceiling: ceiling and visibility are OK
Clouds: unknown
Weather: no significant weather observed at this time

METAR text: YMML 232030Z 36023KT CAVOK 07/01 Q1017 FM2030 MOD/SEV TURB BLW 5000FT
Conditions at: YMML (MELBOURNE INTL A, AU) observed 2030 UTC 23 August 2019
Temperature: 7.0°C (45°F)
Dewpoint: 1.0°C (34°F) [RH = 66%]
Pressure (altimeter): 30.03 inches Hg (1017.0 mb)
Winds: from the N (360 degrees) at 26 MPH (23 knots; 11.8 m/s)
Visibility: 6 or more miles (10+ km)
Ceiling: ceiling and visibility are OK
Clouds: unknown
Weather: no significant weather observed at this time

METAR text: YMML 232000Z 36022KT CAVOK 07/01 Q1017 FM2000 36018G28KT CAVOK FM2100 36024G36KT CAVOK FM2000 MOD/SEV TURB BLW 5000FT
Conditions at: YMML (MELBOURNE INTL A, AU) observed 2000 UTC 23 August 2019
Temperature: 7.0°C (45°F)
Dewpoint: 1.0°C (34°F) [RH = 66%]
Pressure (altimeter): 30.03 inches Hg (1017.0 mb)
Winds: from the N (360 degrees) at 25 MPH (22 knots; 11.3 m/s)
Visibility: 6 or more miles (10+ km)
Ceiling: ceiling and visibility are OK
Clouds: unknown
Weather: no significant weather observed at this time

METAR text: YMML 231950Z 36020G31KT CAVOK 07/01 Q1017 FM2100 36024G36KT CAVOK FM1950 MOD/SEV TURB BLW 5000FT
Conditions at: YMML (MELBOURNE INTL A, AU) observed 1950 UTC 23 August 2019
Temperature: 7.0°C (45°F)
Dewpoint: 1.0°C (34°F) [RH = 66%]
Pressure (altimeter): 30.03 inches Hg (1017.0 mb)
Winds: from the N (360 degrees) at 23 MPH (20 knots; 10.3 m/s)
gusting to 36 MPH (31 knots; 15.9 m/s)
Visibility: 6 or more miles (10+ km)
Ceiling: ceiling and visibility are OK
Clouds: unknown
Weather: no significant weather observed at this time

METAR text: YMML 231930Z 36020KT CAVOK 07/02 Q1017 FM1930 36018G28KT CAVOK FM2100 36024G36KT CAVOK FM1930 MOD/SEV TURB BLW 5000FT
Conditions at: YMML (MELBOURNE INTL A, AU) observed 1930 UTC 23 August 2019
Temperature: 7.0°C (45°F)
Dewpoint: 2.0°C (36°F) [RH = 70%]
Pressure (altimeter): 30.03 inches Hg (1017.0 mb)
Winds: from the N (360 degrees) at 23 MPH (20 knots; 10.3 m/s)
Visibility: 6 or more miles (10+ km)
Ceiling: ceiling and visibility are OK
Clouds: unknown
Weather: no significant weather observed at this time

METAR text: YMML 231900Z 36021KT CAVOK 07/02 Q1017 FM1900 36018G28KT CAVOK FM2100 36024G36KT CAVOK FM1900 MOD/SEV TURB BLW 5000FT
Conditions at: YMML (MELBOURNE INTL A, AU) observed 1900 UTC 23 August 2019
Temperature: 7.0°C (45°F)
Dewpoint: 2.0°C (36°F) [RH = 70%]
Pressure (altimeter): 30.03 inches Hg (1017.0 mb)
Winds: from the N (360 degrees) at 24 MPH (21 knots; 10.8 m/s)
Visibility: 6 or more miles (10+ km)
Ceiling: ceiling and visibility are OK
Clouds: unknown
Weather: no significant weather observed at this time

METAR text: YMML 231830Z 35018KT CAVOK 08/02 Q1017 FM1830 36018G28KT CAVOK FM2100 36024G36KT CAVOK FM1830 MOD/SEV TURB BLW 5000FT
Conditions at: YMML (MELBOURNE INTL A, AU) observed 1830 UTC 23 August 2019
Temperature: 8.0°C (46°F)
Dewpoint: 2.0°C (36°F) [RH = 66%]
Pressure (altimeter): 30.03 inches Hg (1017.0 mb)
Winds: from the N (350 degrees) at 21 MPH (18 knots; 9.3 m/s)
Visibility: 6 or more miles (10+ km)
Ceiling: ceiling and visibility are OK
Clouds: unknown
Weather: no significant weather observed at this time

METAR text: YMML 231800Z 36021KT CAVOK 08/02 Q1016 FM1800 36018G28KT CAVOK FM1800 MOD/SEV TURB BLW 5000FT
Conditions at: YMML (MELBOURNE INTL A, AU) observed 1800 UTC 23 August 2019
Temperature: 8.0°C (46°F)
Dewpoint: 2.0°C (36°F) [RH = 66%]
Pressure (altimeter): 30.00 inches Hg (1016.0 mb)
Winds: from the N (360 degrees) at 24 MPH (21 knots; 10.8 m/s)
Visibility: 6 or more miles (10+ km)
Ceiling: ceiling and visibility are OK
Clouds: unknown
Weather: no significant weather observed at this time

METAR text: YMML 231730Z 01021KT CAVOK 08/02 Q1016 FM1730 36018G28KT CAVOK FM1730 MOD/SEV TURB BLW 5000FT
Conditions at: YMML (MELBOURNE INTL A, AU) observed 1730 UTC 23 August 2019
Temperature: 8.0°C (46°F)
Dewpoint: 2.0°C (36°F) [RH = 66%]
Pressure (altimeter): 30.00 inches Hg (1016.0 mb)
Winds: from the N (10 degrees) at 24 MPH (21 knots; 10.8 m/s)
Visibility: 6 or more miles (10+ km)
Ceiling: ceiling and visibility are OK
Clouds: unknown
Weather: no significant weather observed at this time

METAR text: YMML 231707Z 01021G31KT CAVOK 08/02 Q1017 FM1707 MOD/SEV TURB BLW 5000FT
Conditions at: YMML (MELBOURNE INTL A, AU) observed 1707 UTC 23 August 2019
Temperature: 8.0°C (46°F)
Dewpoint: 2.0°C (36°F) [RH = 66%]
Pressure (altimeter): 30.03 inches Hg (1017.0 mb)
Winds: from the N (10 degrees) at 24 MPH (21 knots; 10.8 m/s)
gusting to 36 MPH (31 knots; 15.9 m/s)
Visibility: 6 or more miles (10+ km)
Ceiling: ceiling and visibility are OK
Clouds: unknown
Weather: no significant weather observed at this time

METAR text: YMML 231700Z 01020KT CAVOK 08/02 Q1017 FM1700 36018G28KT CAVOK FM1700 MOD/SEV TURB BLW 5000FT
Conditions at: YMML (MELBOURNE INTL A, AU) observed 1700 UTC 23 August 2019
Temperature: 8.0°C (46°F)
Dewpoint: 2.0°C (36°F) [RH = 66%]
Pressure (altimeter): 30.03 inches Hg (1017.0 mb)
Winds: from the N (10 degrees) at 23 MPH (20 knots; 10.3 m/s)
Visibility: 6 or more miles (10+ km)
Ceiling: ceiling and visibility are OK
Clouds: unknown
Weather: no significant weather observed at this time

METAR text: YMML 231630Z 01016KT CAVOK 08/02 Q1018 FM1630 36018G28KT CAVOK FM1630 MOD/SEV TURB BLW 5000FT
Conditions at: YMML (MELBOURNE INTL A, AU) observed 1630 UTC 23 August 2019
Temperature: 8.0°C (46°F)
Dewpoint: 2.0°C (36°F) [RH = 66%]
Pressure (altimeter): 30.06 inches Hg (1018.0 mb)
Winds: from the N (10 degrees) at 18 MPH (16 knots; 8.2 m/s)
Visibility: 6 or more miles (10+ km)
Ceiling: ceiling and visibility are OK
Clouds: unknown
Weather: no significant weather observed at this time

METAR text: YMML 231600Z 01014KT CAVOK 08/02 Q1018 FM1600 36018G28KT CAVOK FM1600 MOD/SEV TURB BLW 5000FT
Conditions at: YMML (MELBOURNE INTL A, AU) observed 1600 UTC 23 August 2019
Temperature: 8.0°C (46°F)
Dewpoint: 2.0°C (36°F) [RH = 66%]
Pressure (altimeter): 30.06 inches Hg (1018.0 mb)
Winds: from the N (10 degrees) at 16 MPH (14 knots; 7.2 m/s)
Visibility: 6 or more miles (10+ km)
Ceiling: ceiling and visibility are OK
Clouds: unknown
Weather: no significant weather observed at this time

METAR text: YMML 231530Z 02013KT CAVOK 08/03 Q1018 FM1600 36018G28KT CAVOK FM1530 MOD/SEV TURB BLW 5000FT
Conditions at: YMML (MELBOURNE INTL A, AU) observed 1530 UTC 23 August 2019
Temperature: 8.0°C (46°F)
Dewpoint: 3.0°C (37°F) [RH = 71%]
Pressure (altimeter): 30.06 inches Hg (1018.0 mb)
Winds: from the NNE (20 degrees) at 15 MPH (13 knots; 6.7 m/s)
Visibility: 6 or more miles (10+ km)
Ceiling: ceiling and visibility are OK
Clouds: unknown
Weather: no significant weather observed at this time

METAR text: YMML 231500Z 02013KT CAVOK 08/03 Q1018 FM1600 36018G28KT CAVOK FM1500 MOD/SEV TURB BLW 5000FT
Conditions at: YMML (MELBOURNE INTL A, AU) observed 1500 UTC 23 August 2019
Temperature: 8.0°C (46°F)
Dewpoint: 3.0°C (37°F) [RH = 71%]
Pressure (altimeter): 30.06 inches Hg (1018.0 mb)
Winds: from the NNE (20 degrees) at 15 MPH (13 knots; 6.7 m/s)
Visibility: 6 or more miles (10+ km)
Ceiling: ceiling and visibility are OK
Clouds: unknown
Weather: no significant weather observed at this time

METAR text: YMML 231430Z 02011KT CAVOK 08/03 Q1018 FM1600 36018G28KT CAVOK FM1430 MOD/SEV TURB BLW 5000FT
Conditions at: YMML (MELBOURNE INTL A, AU) observed 1430 UTC 23 August 2019
Temperature: 8.0°C (46°F)
Dewpoint: 3.0°C (37°F) [RH = 71%]
Pressure (altimeter): 30.06 inches Hg (1018.0 mb)
Winds: from the NNE (20 degrees) at 13 MPH (11 knots; 5.7 m/s)
Visibility: 6 or more miles (10+ km)
Ceiling: ceiling and visibility are OK
Clouds: unknown
Weather: no significant weather observed at this time

METAR text: YMML 231400Z 01017G31KT CAVOK 08/03 Q1018 FM1430 36014KT CAVOK FM1600 36018G28KT CAVOK FM1400 MOD/SEV TURB BLW 5000FT
Conditions at: YMML (MELBOURNE INTL A, AU) observed 1400 UTC 23 August 2019
Temperature: 8.0°C (46°F)
Dewpoint: 3.0°C (37°F) [RH = 71%]
Pressure (altimeter): 30.06 inches Hg (1018.0 mb)
Winds: from the N (10 degrees) at 20 MPH (17 knots; 8.7 m/s)
gusting to 36 MPH (31 knots; 15.9 m/s)
Visibility: 6 or more miles (10+ km)
Ceiling: ceiling and visibility are OK
Clouds: unknown
Weather: no significant weather observed at this time

METAR text: YMML 231355Z 01016G27KT CAVOK 08/03 Q1018 FM1355 36014KT CAVOK FM1600 36018G28KT CAVOK FM1355 MOD TURB BLW 5000FT TL1400 FM1400 MOD/SEV TURB BLW 5000FT
Conditions at: YMML (MELBOURNE INTL A, AU) observed 1355 UTC 23 August 2019
Temperature: 8.0°C (46°F)
Dewpoint: 3.0°C (37°F) [RH = 71%]
Pressure (altimeter): 30.06 inches Hg (1018.0 mb)
Winds: from the N (10 degrees) at 18 MPH (16 knots; 8.2 m/s)
gusting to 31 MPH (27 knots; 13.9 m/s)
Visibility: 6 or more miles (10+ km)
Ceiling: ceiling and visibility are OK
Clouds: unknown
Weather: no significant weather observed at this time

METAR text: YMML 231330Z 36016KT CAVOK 09/03 Q1018 FM1600 36018G28KT CAVOK FM1330 MOD TURB BLW 5000FT TL1400 FM1400 MOD/SEV TURB BLW 5000FT
Conditions at: YMML (MELBOURNE INTL A, AU) observed 1330 UTC 23 August 2019
Temperature: 9.0°C (48°F)
Dewpoint: 3.0°C (37°F) [RH = 66%]
Pressure (altimeter): 30.06 inches Hg (1018.0 mb)
Winds: from the N (360 degrees) at 18 MPH (16 knots; 8.2 m/s)
Visibility: 6 or more miles (10+ km)
Ceiling: ceiling and visibility are OK
Clouds: unknown
Weather: no significant weather observed at this time

METAR text: YMML 231300Z 01019KT CAVOK 09/02 Q1018 FM1300 MOD TURB BLW 5000FT TL1400 FM1400 MOD/SEV TURB BLW 5000FT
Conditions at: YMML (MELBOURNE INTL A, AU) observed 1300 UTC 23 August 2019
Temperature: 9.0°C (48°F)
Dewpoint: 2.0°C (36°F) [RH = 61%]
Pressure (altimeter): 30.06 inches Hg (1018.0 mb)
Winds: from the N (10 degrees) at 22 MPH (19 knots; 9.8 m/s)
Visibility: 6 or more miles (10+ km)
Ceiling: ceiling and visibility are OK
Clouds: unknown
Weather: no significant weather observed at this time

METAR text: YMML 231230Z 36017KT CAVOK 09/02 Q1019 FM1230 MOD TURB BLW 5000FT TL1400 FM1400 MOD/SEV TURB BLW 5000FT
Conditions at: YMML (MELBOURNE INTL A, AU) observed 1230 UTC 23 August 2019
Temperature: 9.0°C (48°F)
Dewpoint: 2.0°C (36°F) [RH = 61%]
Pressure (altimeter): 30.09 inches Hg (1019.0 mb)
Winds: from the N (360 degrees) at 20 MPH (17 knots; 8.7 m/s)
Visibility: 6 or more miles (10+ km)
Ceiling: ceiling and visibility are OK
Clouds: unknown
Weather: no significant weather observed at this time

METAR text: YMML 231200Z 36013KT CAVOK 10/02 Q1019 FM1200 MOD TURB BLW 5000FT TL1400 FM1400 MOD/SEV TURB BLW 5000FT
Conditions at: YMML (MELBOURNE INTL A, AU) observed 1200 UTC 23 August 2019
Temperature: 10.0°C (50°F)
Dewpoint: 2.0°C (36°F) [RH = 57%]
Pressure (altimeter): 30.09 inches Hg (1019.0 mb)
Winds: from the N (360 degrees) at 15 MPH (13 knots; 6.7 m/s)
Visibility: 6 or more miles (10+ km)
Ceiling: ceiling and visibility are OK
Clouds: unknown
Weather: no significant weather observed at this time

METAR text: YMML 231143Z 36021G32KT CAVOK 09/02 Q1020 FM1143 36014KT CAVOK FM1143 MOD TURB BLW 5000FT TL1400 FM1400 MOD/SEV TURB BLW 5000FT
Conditions at: YMML (MELBOURNE INTL A, AU) observed 1143 UTC 23 August 2019
Temperature: 9.0°C (48°F)
Dewpoint: 2.0°C (36°F) [RH = 61%]
Pressure (altimeter): 30.12 inches Hg (1020.0 mb)
Winds: from the N (360 degrees) at 24 MPH (21 knots; 10.8 m/s)
gusting to 37 MPH (32 knots; 16.5 m/s)
Visibility: 6 or more miles (10+ km)
Ceiling: ceiling and visibility are OK
Clouds: unknown
Weather: no significant weather observed at this time

METAR text: YMML 231130Z 01010KT CAVOK 10/03 Q1020 FM1130 MOD TURB BLW 5000FT TL1400 FM1400 MOD/SEV TURB BLW 5000FT
Conditions at: YMML (MELBOURNE INTL A, AU) observed 1130 UTC 23 August 2019
Temperature: 10.0°C (50°F)
Dewpoint: 3.0°C (37°F) [RH = 62%]
Pressure (altimeter): 30.12 inches Hg (1020.0 mb)
Winds: from the N (10 degrees) at 12 MPH (10 knots; 5.1 m/s)
Visibility: 6 or more miles (10+ km)
Ceiling: ceiling and visibility are OK
Clouds: unknown
Weather: no significant weather observed at this time

METAR text: YMML 231100Z 35016KT CAVOK 11/02 Q1020 FM1100 MOD TURB BLW 5000FT
Conditions at: YMML (MELBOURNE INTL A, AU) observed 1100 UTC 23 August 2019
Temperature: 11.0°C (52°F)
Dewpoint: 2.0°C (36°F) [RH = 54%]
Pressure (altimeter): 30.12 inches Hg (1020.0 mb)
Winds: from the N (350 degrees) at 18 MPH (16 knots; 8.2 m/s)
Visibility: 6 or more miles (10+ km)
Ceiling: ceiling and visibility are OK
Clouds: unknown
Weather: no significant weather observed at this time

METAR text: YMML 231030Z 35018KT CAVOK 10/02 Q1020 FM1030 36014KT CAVOK FM1030 MOD TURB BLW 5000FT
Conditions at: YMML (MELBOURNE INTL A, AU) observed 1030 UTC 23 August 2019
Temperature: 10.0°C (50°F)
Dewpoint: 2.0°C (36°F) [RH = 57%]
Pressure (altimeter): 30.12 inches Hg (1020.0 mb)
Winds: from the N (350 degrees) at 21 MPH (18 knots; 9.3 m/s)
Visibility: 6 or more miles (10+ km)
Ceiling: ceiling and visibility are OK
Clouds: unknown
Weather: no significant weather observed at this time

METAR text: YMML 231000Z 35017KT CAVOK 10/03 Q1020 FM1000 MOD TURB BLW 5000FT
Conditions at: YMML (MELBOURNE INTL A, AU) observed 1000 UTC 23 August 2019
Temperature: 10.0°C (50°F)
Dewpoint: 3.0°C (37°F) [RH = 62%]
Pressure (altimeter): 30.12 inches Hg (1020.0 mb)
Winds: from the N (350 degrees) at 20 MPH (17 knots; 8.7 m/s)
Visibility: 6 or more miles (10+ km)
Ceiling: ceiling and visibility are OK
Clouds: unknown
Weather: no significant weather observed at this time

METAR text: YMML 230930Z 36020KT CAVOK 10/03 Q1020 FM0930 36014KT CAVOK FM0930 MOD TURB BLW 5000FT
Conditions at: YMML (MELBOURNE INTL A, AU) observed 0930 UTC 23 August 2019
Temperature: 10.0°C (50°F)
Dewpoint: 3.0°C (37°F) [RH = 62%]
Pressure (altimeter): 30.12 inches Hg (1020.0 mb)
Winds: from the N (360 degrees) at 23 MPH (20 knots; 10.3 m/s)
Visibility: 6 or more miles (10+ km)
Ceiling: ceiling and visibility are OK
Clouds: unknown
Weather: no significant weather observed at this time

METAR text: YMML 230900Z 36017KT CAVOK 10/03 Q1020 FM0930 36014KT CAVOK FM0900 MOD TURB BLW 5000FT
Conditions at: YMML (MELBOURNE INTL A, AU) observed 0900 UTC 23 August 2019
Temperature: 10.0°C (50°F)
Dewpoint: 3.0°C (37°F) [RH = 62%]
Pressure (altimeter): 30.12 inches Hg (1020.0 mb)
Winds: from the N (360 degrees) at 20 MPH (17 knots; 8.7 m/s)
Visibility: 6 or more miles (10+ km)
Ceiling: ceiling and visibility are OK
Clouds: unknown
Weather: no significant weather observed at this time

METAR text: YMML 230830Z 01019G32KT CAVOK 11/03 Q1020 FM0830 36015G25KT CAVOK FM0900 36014KT CAVOK FM0830 MOD TURB BLW 5000FT
Conditions at: YMML (MELBOURNE INTL A, AU) observed 0830 UTC 23 August 2019
Temperature: 11.0°C (52°F)
Dewpoint: 3.0°C (37°F) [RH = 58%]
Pressure (altimeter): 30.12 inches Hg (1020.0 mb)
Winds: from the N (10 degrees) at 22 MPH (19 knots; 9.8 m/s)
gusting to 37 MPH (32 knots; 16.5 m/s)
Visibility: 6 or more miles (10+ km)
Ceiling: ceiling and visibility are OK
Clouds: unknown
Weather: no significant weather observed at this time

METAR text: YMML 230825Z 01018G28KT CAVOK 11/03 Q1020 FM0830 36014KT CAVOK FM0825 MOD TURB BLW 5000FT
Conditions at: YMML (MELBOURNE INTL A, AU) observed 0825 UTC 23 August 2019
Temperature: 11.0°C (52°F)
Dewpoint: 3.0°C (37°F) [RH = 58%]
Pressure (altimeter): 30.12 inches Hg (1020.0 mb)
Winds: from the N (10 degrees) at 21 MPH (18 knots; 9.3 m/s)
gusting to 32 MPH (28 knots; 14.4 m/s)
Visibility: 6 or more miles (10+ km)
Ceiling: ceiling and visibility are OK
Clouds: unknown
Weather: no significant weather observed at this time

METAR text: YMML 230800Z 01015KT CAVOK 12/03 Q1020 FM0800 MOD TURB BLW 5000FT
Conditions at: YMML (MELBOURNE INTL A, AU) observed 0800 UTC 23 August 2019
Temperature: 12.0°C (54°F)
Dewpoint: 3.0°C (37°F) [RH = 54%]
Pressure (altimeter): 30.12 inches Hg (1020.0 mb)
Winds: from the N (10 degrees) at 17 MPH (15 knots; 7.7 m/s)
Visibility: 6 or more miles (10+ km)
Ceiling: ceiling and visibility are OK
Clouds: unknown
Weather: no significant weather observed at this time

METAR text: YMML 230730Z 36014KT CAVOK 12/03 Q1020 FM0800 MOD TURB BLW 5000FT
Conditions at: YMML (MELBOURNE INTL A, AU) observed 0730 UTC 23 August 2019
Temperature: 12.0°C (54°F)
Dewpoint: 3.0°C (37°F) [RH = 54%]
Pressure (altimeter): 30.12 inches Hg (1020.0 mb)
Winds: from the N (360 degrees) at 16 MPH (14 knots; 7.2 m/s)
Visibility: 6 or more miles (10+ km)
Ceiling: ceiling and visibility are OK
Clouds: unknown
Weather: no significant weather observed at this time

METAR text: YMML 230700Z 36019KT CAVOK 13/02 Q1020 FM0800 36014KT CAVOK FM0800 MOD TURB BLW 5000FT
Conditions at: YMML (MELBOURNE INTL A, AU) observed 0700 UTC 23 August 2019
Temperature: 13.0°C (55°F)
Dewpoint: 2.0°C (36°F) [RH = 47%]
Pressure (altimeter): 30.12 inches Hg (1020.0 mb)
Winds: from the N (360 degrees) at 22 MPH (19 knots; 9.8 m/s)
Visibility: 6 or more miles (10+ km)
Ceiling: ceiling and visibility are OK
Clouds: unknown
Weather: no significant weather observed at this time

METAR text: YMML 230630Z 36020KT CAVOK 14/03 Q1020 FM0800 36014KT CAVOK FM0800 MOD TURB BLW 5000FT
Conditions at: YMML (MELBOURNE INTL A, AU) observed 0630 UTC 23 August 2019
Temperature: 14.0°C (57°F)
Dewpoint: 3.0°C (37°F) [RH = 47%]
Pressure (altimeter): 30.12 inches Hg (1020.0 mb)
Winds: from the N (360 degrees) at 23 MPH (20 knots; 10.3 m/s)
Visibility: 6 or more miles (10+ km)
Ceiling: ceiling and visibility are OK
Clouds: unknown
Weather: no significant weather observed at this time

METAR text: YMML 230627Z 36019G29KT CAVOK 14/02 Q1020 FM0800 36014KT CAVOK FM0800 MOD TURB BLW 5000FT
Conditions at: YMML (MELBOURNE INTL A, AU) observed 0627 UTC 23 August 2019
Temperature: 14.0°C (57°F)
Dewpoint: 2.0°C (36°F) [RH = 44%]
Pressure (altimeter): 30.12 inches Hg (1020.0 mb)
Winds: from the N (360 degrees) at 22 MPH (19 knots; 9.8 m/s)
gusting to 33 MPH (29 knots; 14.9 m/s)
Visibility: 6 or more miles (10+ km)
Ceiling: ceiling and visibility are OK
Clouds: unknown
Weather: no significant weather observed at this time

METAR text: YMML 230600Z 36019KT CAVOK 14/03 Q1020 FM0800 MOD TURB BLW 5000FT
Conditions at: YMML (MELBOURNE INTL A, AU) observed 0600 UTC 23 August 2019
Temperature: 14.0°C (57°F)
Dewpoint: 3.0°C (37°F) [RH = 47%]
Pressure (altimeter): 30.12 inches Hg (1020.0 mb)
Winds: from the N (360 degrees) at 22 MPH (19 knots; 9.8 m/s)
Visibility: 6 or more miles (10+ km)
Ceiling: ceiling and visibility are OK
Clouds: unknown
Weather: no significant weather observed at this time

METAR text: YMML 230530Z 01019KT CAVOK 15/04 Q1020 FM0800 MOD TURB BLW 5000FT
Conditions at: YMML (MELBOURNE INTL A, AU) observed 0530 UTC 23 August 2019
Temperature: 15.0°C (59°F)
Dewpoint: 4.0°C (39°F) [RH = 48%]
Pressure (altimeter): 30.12 inches Hg (1020.0 mb)
Winds: from the N (10 degrees) at 22 MPH (19 knots; 9.8 m/s)
Visibility: 6 or more miles (10+ km)
Ceiling: ceiling and visibility are OK
Clouds: unknown
Weather: no significant weather observed at this time

METAR text: YMML 230500Z 01020KT CAVOK 14/05 Q1020
Conditions at: YMML (MELBOURNE INTL A, AU) observed 0500 UTC 23 August 2019
Temperature: 14.0°C (57°F)
Dewpoint: 5.0°C (41°F) [RH = 55%]
Pressure (altimeter): 30.12 inches Hg (1020.0 mb)
Winds: from the N (10 degrees) at 23 MPH (20 knots; 10.3 m/s)
Visibility: 6 or more miles (10+ km)
Ceiling: ceiling and visibility are OK
Clouds: unknown
Weather: no significant weather observed at this time

METAR text: YMML 230430Z 01019KT CAVOK 15/04 Q1020 NOSIG
Conditions at: YMML (MELBOURNE INTL A, AU) observed 0430 UTC 23 August 2019
Temperature: 15.0°C (59°F)
Dewpoint: 4.0°C (39°F) [RH = 48%]
Pressure (altimeter): 30.12 inches Hg (1020.0 mb)
Winds: from the N (10 degrees) at 22 MPH (19 knots; 9.8 m/s)
Visibility: 6 or more miles (10+ km)
Ceiling: ceiling and visibility are OK
Clouds: unknown
Weather: no significant weather observed at this time

Forecast for: YMML (MELBOURNE INTL A, AU)
Text: TAF YMML 241107Z 2412/2518 25012KT 9999 FEW020 SCT040
Forecast period: 1200 to 2300 UTC 24 August 2019
Forecast type: FROM: standard forecast or significant change
Winds: from the WSW (250 degrees) at 14 MPH (12 knots; 6.2 m/s)
Visibility: 6 or more miles 10+ km)
Ceiling: at least 12,000 feet AGL
Clouds: few clouds at 2000 feet AGL
scattered clouds at 4000 feet AGL
Weather: no significant weather forecast for this period
Text: BECMG 2423/2501 22012KT 9999 -SHRA SCT040
Forecast period: 2300 UTC 24 August 2019 to 0600 UTC 25 August 2019
Forecast type: BECOMING: Conditions expected to become as follows by 0100 UTC 25 August 2019
Winds: from the SW (220 degrees) at 14 MPH (12 knots; 6.2 m/s)
Visibility: 6 or more miles 10+ km)
Ceiling: at least 12,000 feet AGL
Clouds: scattered clouds at 4000 feet AGL
Weather: -SHRA  (light rain showers)
Text: FM250600 19008KT 9999 SCT045
Forecast period: 0600 to 1200 UTC 25 August 2019
Forecast type: FROM: standard forecast or significant change
Winds: from the S (190 degrees) at 9 MPH (8 knots; 4.1 m/s)
Visibility: 6 or more miles 10+ km)
Ceiling: at least 12,000 feet AGL
Clouds: scattered clouds at 4500 feet AGL
Weather: no significant weather forecast for this period
Text: FM251200 29008KT 9999 FEW030 BKN040
Forecast period: 1200 to 1800 UTC 25 August 2019
Forecast type: FROM: standard forecast or significant change
Winds: from the WNW (290 degrees) at 9 MPH (8 knots; 4.1 m/s)
Visibility: 6 or more miles 10+ km)
Ceiling: 4000 feet AGL
Clouds: few clouds at 3000 feet AGL
broken clouds at 4000 feet AGL
Weather: no significant weather forecast for this period